Time;durP1;ratioP1;P1;durP2;ratioP2;P2;SDS_P1;SDS_P2;PMS_P1;PMS_P2;Temp;Humidity;BMP_temperature;BMP_pressure;BME280_temperature;BME280_humidity;BME280_pressure;Samples;Min_cycle;Max_cycle;Signal;HPM_P1;HPM_P2
2023/08/11 00:00:44;;;;;;;4.73;3.10;;;;;;;-143.84;75.72;45064.31;5088474;28;20440;-53
2023/08/11 00:03:11;;;;;;;4.07;3.00;;;;;;;-143.84;75.51;45087.16;5091783;28;20499;-53
2023/08/11 00:05:38;;;;;;;3.43;3.13;;;;;;;-143.84;75.32;45052.88;5092101;28;20488;-54
2023/08/11 00:08:08;;;;;;;3.33;2.93;;;;;;;-143.84;75.37;45102.38;5091946;28;20482;-53
2023/08/11 00:10:36;;;;;;;3.97;3.63;;;;;;;-143.84;75.23;45064.31;5092136;28;20450;-53
2023/08/11 00:13:06;;;;;;;3.33;3.03;;;;;;;-143.84;75.23;45089.06;5092338;28;20448;-53
2023/08/11 00:15:39;;;;;;;3.63;3.10;;;;;;;-143.84;75.29;45094.78;5092085;28;20475;-53
2023/08/11 00:18:07;;;;;;;3.20;2.97;;;;;;;-143.84;75.44;45058.59;5091819;28;20482;-53
2023/08/11 00:20:34;;;;;;;3.60;3.40;;;;;;;-143.84;75.15;45087.16;5091865;28;20443;-53
2023/08/11 00:23:01;;;;;;;6.20;3.00;;;;;;;-143.84;75.32;45089.06;5091810;28;20447;-53
2023/08/11 00:25:28;;;;;;;5.53;3.07;;;;;;;-143.84;75.53;45092.88;5091711;28;20470;-53
2023/08/11 00:27:58;;;;;;;6.53;3.10;;;;;;;-143.84;75.34;45071.91;5091687;28;20543;-53
2023/08/11 00:30:26;;;;;;;5.00;2.93;;;;;;;-143.84;75.41;45068.13;5091749;28;20823;-53
2023/08/11 00:32:53;;;;;;;7.23;2.47;;;;;;;-143.84;75.18;45100.47;5090856;28;20523;-53
2023/08/11 00:35:21;;;;;;;3.13;2.90;;;;;;;-143.84;75.15;45083.34;5091317;28;20493;-53
2023/08/11 00:37:49;;;;;;;2.80;2.60;;;;;;;-143.84;75.25;45066.22;5091122;28;20447;-53
2023/08/11 00:40:16;;;;;;;7.40;3.50;;;;;;;-143.84;75.12;45075.72;5091545;28;20523;-53
2023/08/11 00:42:43;;;;;;;4.60;3.00;;;;;;;-143.84;75.55;45090.97;5091674;28;20869;-53
2023/08/11 00:45:12;;;;;;;3.93;3.50;;;;;;;-143.84;75.43;45089.06;5091648;28;20440;-53
2023/08/11 00:47:42;;;;;;;2.87;2.67;;;;;;;-143.84;74.93;45075.72;5091264;28;20447;-53
2023/08/11 00:50:10;;;;;;;4.83;2.97;;;;;;;-143.84;75.33;45056.69;5091458;28;20497;-53
2023/08/11 00:52:38;;;;;;;4.00;3.37;;;;;;;-143.84;75.04;45050.97;5091185;28;20455;-53
2023/08/11 00:55:06;;;;;;;4.33;2.93;;;;;;;-143.84;75.38;45094.78;5091374;28;20448;-53
2023/08/11 00:57:33;;;;;;;3.23;2.90;;;;;;;-143.84;75.35;45089.06;5091085;28;20447;-53
2023/08/11 01:00:11;;;;;;;3.10;2.33;;;;;;;-143.84;75.61;45068.13;5091066;28;20451;-54
2023/08/11 01:02:42;;;;;;;4.30;3.00;;;;;;;-143.84;75.83;45079.53;5090892;28;20475;-53
2023/08/11 01:05:10;;;;;;;3.13;2.83;;;;;;;-143.84;75.75;45081.44;5091050;28;20501;-53
2023/08/11 01:07:44;;;;;;;3.30;3.10;;;;;;;-143.84;75.92;45102.38;5091186;28;20547;-53
2023/08/11 01:10:19;;;;;;;5.83;3.00;;;;;;;-143.84;75.90;45100.47;5090962;28;20574;-53
2023/08/11 01:13:01;;;;;;;4.00;3.10;;;;;;;-143.84;76.58;45106.19;5090786;28;20443;-53
2023/08/11 01:15:35;;;;;;;5.80;3.50;;;;;;;-143.84;76.66;45094.78;5090680;28;20447;-53
2023/08/11 01:18:06;;;;;;;3.20;3.00;;;;;;;-143.84;77.06;45102.38;5090710;28;20441;-53
2023/08/11 01:20:34;;;;;;;3.03;2.83;;;;;;;-143.84;77.53;45062.41;5090911;28;20440;-53
2023/08/11 01:23:06;;;;;;;6.13;2.83;;;;;;;-143.84;77.93;45087.16;5090766;28;21133;-53
2023/08/11 01:25:35;;;;;;;3.10;2.90;;;;;;;-143.84;78.06;45085.25;5090688;28;21003;-54
2023/08/11 01:28:02;;;;;;;3.27;2.83;;;;;;;-143.84;78.40;45070.00;5090416;28;20532;-53
2023/08/11 01:30:30;;;;;;;3.33;3.00;;;;;;;-143.84;78.40;45079.53;5090392;28;20432;-53
2023/08/11 01:32:57;;;;;;;2.83;2.63;;;;;;;-143.84;78.63;45106.19;5090345;28;20999;-53
2023/08/11 01:35:24;;;;;;;3.20;3.00;;;;;;;-143.84;78.96;45068.13;5090531;28;20444;-53
2023/08/11 01:37:52;;;;;;;4.23;3.27;;;;;;;-143.84;80.09;45096.66;5090445;28;21210;-53
2023/08/11 01:40:19;;;;;;;4.27;2.87;;;;;;;-143.84;82.41;45087.16;5089974;28;20452;-53
2023/08/11 01:42:48;;;;;;;5.30;3.50;;;;;;;-143.84;84.02;45098.56;5090353;28;20496;-53
2023/08/11 01:45:16;;;;;;;3.87;3.43;;;;;;;-143.84;85.17;45083.34;5090234;28;20532;-53
2023/08/11 01:47:46;;;;;;;3.63;3.33;;;;;;;-143.84;85.66;45094.78;5089939;28;20476;-53
2023/08/11 01:50:15;;;;;;;3.70;3.40;;;;;;;-143.84;86.26;45090.97;5090173;28;20487;-53
2023/08/11 01:52:45;;;;;;;3.80;3.50;;;;;;;-143.84;86.95;45102.38;5089960;28;20941;-53
2023/08/11 01:55:13;;;;;;;4.60;4.10;;;;;;;-143.84;87.39;45130.94;5090097;28;20508;-53
2023/08/11 01:57:41;;;;;;;7.13;3.00;;;;;;;-143.84;88.02;45102.38;5090321;28;20428;-53
2023/08/11 02:00:13;;;;;;;3.67;3.47;;;;;;;-143.84;88.04;45089.06;5089897;28;21382;-53
2023/08/11 02:02:40;;;;;;;8.40;3.50;;;;;;;-143.84;87.77;45113.81;5089941;28;20491;-53
2023/08/11 02:05:09;;;;;;;3.67;3.37;;;;;;;-143.84;87.97;45090.97;5089876;28;20525;-54
2023/08/11 02:07:36;;;;;;;3.83;3.53;;;;;;;-143.84;87.81;45087.16;5089676;28;20456;-54
2023/08/11 02:10:04;;;;;;;2.97;2.77;;;;;;;-143.84;87.39;45098.56;5090112;28;20556;-53
2023/08/11 02:12:32;;;;;;;3.23;3.03;;;;;;;-143.84;87.42;45125.22;5089719;28;20443;-53
2023/08/11 02:15:01;;;;;;;4.27;3.47;;;;;;;-143.84;87.14;45092.88;5089795;28;20513;-54
2023/08/11 02:17:31;;;;;;;3.87;3.57;;;;;;;-143.84;86.64;45106.19;5089652;28;20469;-53
2023/08/11 02:19:58;;;;;;;6.80;3.60;;;;;;;-143.84;86.88;45090.97;5087814;28;20460;-53
2023/08/11 02:22:25;;;;;;;8.03;3.27;;;;;;;-143.84;86.34;45115.72;5079421;28;20480;-53
2023/08/11 02:24:52;;;;;;;3.60;3.30;;;;;;;-143.84;86.19;45119.53;5071745;28;20461;-53
2023/08/11 02:27:19;;;;;;;4.00;3.67;;;;;;;-143.84;85.97;45123.34;5082359;28;20452;-53
2023/08/11 02:29:47;;;;;;;3.37;3.07;;;;;;;-143.84;85.85;45106.19;5071523;28;20997;-53
2023/08/11 02:32:15;;;;;;;4.17;3.87;;;;;;;-143.84;85.95;45102.38;5069166;28;20445;-53
2023/08/11 02:34:43;;;;;;;3.20;2.90;;;;;;;-143.84;85.63;45098.56;5069016;28;20433;-53
2023/08/11 02:37:10;;;;;;;4.20;3.27;;;;;;;-143.84;85.40;45090.97;5069134;28;20445;-54
2023/08/11 02:39:38;;;;;;;4.17;3.77;;;;;;;-143.84;84.93;45098.56;5069119;28;21119;-53
2023/08/11 02:42:05;;;;;;;3.40;2.93;;;;;;;-143.84;84.98;45104.28;5069015;28;20433;-53
2023/08/11 02:44:32;;;;;;;4.50;3.20;;;;;;;-143.84;84.82;45090.97;5069051;28;21013;-53
2023/08/11 02:46:59;;;;;;;3.63;3.00;;;;;;;-143.84;84.71;45090.97;5068964;28;20950;-53
2023/08/11 02:49:26;;;;;;;8.53;2.97;;;;;;;-143.84;84.75;45094.78;5069162;28;20472;-53
2023/08/11 02:51:55;;;;;;;4.90;3.20;;;;;;;-143.84;84.36;45104.28;5069259;28;20433;-53
2023/08/11 02:54:22;;;;;;;3.50;3.30;;;;;;;-143.84;84.34;45085.25;5069258;28;20444;-53
2023/08/11 02:56:49;;;;;;;3.53;3.23;;;;;;;-143.84;84.29;45100.47;5068686;28;20443;-53
2023/08/11 02:59:16;;;;;;;4.83;3.20;;;;;;;-143.84;84.44;45113.81;5068518;28;20521;-53
2023/08/11 03:01:44;;;;;;;3.50;2.90;;;;;;;-143.84;84.54;45123.34;5068853;28;20461;-53
2023/08/11 03:04:11;;;;;;;4.17;3.83;;;;;;;-143.84;84.67;45102.38;5068743;28;20558;-53
2023/08/11 03:06:38;;;;;;;4.53;3.47;;;;;;;-143.84;84.42;45102.38;5069348;28;20444;-53
2023/08/11 03:09:08;;;;;;;3.27;3.07;;;;;;;-143.84;84.38;45117.63;5068929;28;20487;-53
2023/08/11 03:11:35;;;;;;;3.33;3.13;;;;;;;-143.84;84.61;45117.63;5068855;28;20437;-53
2023/08/11 03:14:02;;;;;;;4.03;3.60;;;;;;;-143.84;84.67;45085.25;5068907;28;20448;-53
2023/08/11 03:16:31;;;;;;;5.20;2.97;;;;;;;-143.84;84.57;45094.78;5068776;28;20433;-53
2023/08/11 03:18:58;;;;;;;5.83;3.70;;;;;;;-143.84;84.26;45127.13;5068734;28;20514;-53
2023/08/11 03:21:25;;;;;;;6.20;3.03;;;;;;;-143.84;84.48;45121.44;5068607;28;20494;-53
2023/08/11 03:23:52;;;;;;;6.33;3.57;;;;;;;-143.84;84.52;45115.72;5068696;28;20491;-53
2023/08/11 03:26:21;;;;;;;3.60;3.30;;;;;;;-143.84;84.34;45087.16;5068671;28;20842;-53
2023/08/11 03:28:48;;;;;;;5.80;4.03;;;;;;;-143.84;84.53;45085.25;5073368;28;20444;-53
2023/08/11 03:31:18;;;;;;;3.97;3.67;;;;;;;-143.84;84.61;45100.47;5088486;28;20435;-53
2023/08/11 03:33:46;;;;;;;6.50;3.40;;;;;;;-143.84;84.43;45089.06;5089099;28;20464;-53
2023/08/11 03:36:13;;;;;;;3.73;3.50;;;;;;;-143.84;84.26;45094.78;5088856;28;20501;-54
2023/08/11 03:38:40;;;;;;;3.83;3.53;;;;;;;-143.84;84.29;45110.00;5092951;28;20466;-53
2023/08/11 03:41:07;;;;;;;8.80;3.13;;;;;;;-143.84;84.09;45092.88;5092452;28;20521;-54
2023/08/11 03:43:36;;;;;;;3.60;3.30;;;;;;;-143.84;84.15;45108.09;5092677;28;20440;-54
2023/08/11 03:46:03;;;;;;;5.10;3.70;;;;;;;-143.84;84.32;45098.56;5092771;28;20443;-53
2023/08/11 03:48:30;;;;;;;4.33;3.40;;;;;;;-143.84;84.25;45117.63;5092832;28;20443;-54
2023/08/11 03:51:00;;;;;;;4.43;4.03;;;;;;;-143.84;83.82;45087.16;5092445;28;21184;-53
2023/08/11 03:53:27;;;;;;;4.47;4.00;;;;;;;-143.84;83.63;45102.38;5092611;28;20845;-52
2023/08/11 03:55:54;;;;;;;4.57;3.17;;;;;;;-143.84;83.32;45098.56;5092123;28;20440;-52
2023/08/11 03:58:23;;;;;;;3.40;3.20;;;;;;;-143.84;83.15;45104.28;5092242;28;20501;-52
2023/08/11 04:00:51;;;;;;;3.23;3.03;;;;;;;-143.84;83.17;45102.38;5092120;28;20812;-52
2023/08/11 04:03:18;;;;;;;4.63;3.50;;;;;;;-143.84;82.52;45090.97;5091911;28;21113;-52
2023/08/11 04:05:45;;;;;;;4.20;3.80;;;;;;;-143.84;82.52;45098.56;5092291;28;20524;-53
2023/08/11 04:08:12;;;;;;;3.07;2.87;;;;;;;-143.84;82.24;45098.56;5092051;28;20451;-53
2023/08/11 04:10:40;;;;;;;4.80;3.20;;;;;;;-143.84;82.19;45094.78;5092004;28;20472;-52
2023/08/11 04:13:07;;;;;;;3.47;3.27;;;;;;;-143.84;81.99;45089.06;5092090;28;20961;-52
2023/08/11 04:15:34;;;;;;;3.63;3.23;;;;;;;-143.84;81.81;45104.28;5092087;28;20965;-52
2023/08/11 04:18:03;;;;;;;3.37;3.07;;;;;;;-143.84;81.55;45108.09;5092026;28;20497;-53
2023/08/11 04:20:30;;;;;;;4.30;3.53;;;;;;;-143.84;81.36;45102.38;5091971;28;20448;-53
2023/08/11 04:22:57;;;;;;;3.70;3.30;;;;;;;-143.84;81.15;45098.56;5092019;28;20444;-53
2023/08/11 04:25:25;;;;;;;2.63;2.50;;;;;;;-143.84;81.27;45089.06;5091934;28;20497;-53
2023/08/11 04:27:52;;;;;;;4.07;2.83;;;;;;;-143.84;81.07;45125.22;5091739;28;20436;-52
2023/08/11 04:30:19;;;;;;;3.00;2.70;;;;;;;-143.84;80.84;45087.16;5091750;28;20832;-52
2023/08/11 04:32:46;;;;;;;6.70;3.43;;;;;;;-143.84;80.36;45087.16;5091642;28;20432;-52
2023/08/11 04:35:15;;;;;;;5.60;3.13;;;;;;;-143.84;80.34;45100.47;5091603;28;20432;-52
2023/08/11 04:37:42;;;;;;;3.10;2.80;;;;;;;-143.84;80.63;45136.66;5091368;28;20497;-53
2023/08/11 04:40:10;;;;;;;3.50;3.20;;;;;;;-143.84;79.44;45106.19;5091981;28;20497;-53
2023/08/11 04:42:38;;;;;;;3.90;2.93;;;;;;;-143.84;79.00;45085.25;5091582;28;20531;-52
2023/08/11 04:45:06;;;;;;;7.93;2.50;;;;;;;-143.84;78.57;45077.63;5091383;28;20440;-53
2023/08/11 04:47:33;;;;;;;4.53;2.93;;;;;;;-143.84;77.76;45115.72;5090898;28;20467;-52
2023/08/11 04:50:00;;;;;;;2.80;2.60;;;;;;;-143.84;76.18;45083.34;5091323;28;20989;-52
2023/08/11 04:52:29;;;;;;;3.20;2.97;;;;;;;-143.84;74.16;45089.06;5091194;28;20451;-52
2023/08/11 04:54:56;;;;;;;4.43;3.60;;;;;;;-143.84;72.45;45058.59;5091383;28;20444;-52
2023/08/11 04:57:24;;;;;;;3.23;2.97;;;;;;;-143.84;70.35;45039.53;5091468;28;20432;-52
2023/08/11 04:59:51;;;;;;;4.63;3.00;;;;;;;-143.84;67.81;45049.06;5090982;28;20513;-53
2023/08/11 05:02:18;;;;;;;4.50;3.10;;;;;;;-143.84;66.87;45071.91;5090784;28;20444;-52
2023/08/11 05:04:45;;;;;;;3.20;2.90;;;;;;;-143.84;65.16;45064.31;5091025;28;20436;-52
2023/08/11 05:07:12;;;;;;;3.03;2.83;;;;;;;-143.84;63.97;45070.00;5090825;28;20435;-52
2023/08/11 05:09:41;;;;;;;6.10;2.60;;;;;;;-143.84;63.33;45064.31;5090846;28;20579;-53
2023/08/11 05:12:08;;;;;;;3.20;2.90;;;;;;;-143.84;61.58;45037.66;5090943;28;21003;-52
2023/08/11 05:14:35;;;;;;;3.90;3.30;;;;;;;-143.84;61.10;45052.88;5091004;28;20440;-52
2023/08/11 05:17:02;;;;;;;4.50;3.10;;;;;;;-143.84;60.72;45047.16;5090872;28;20500;-52
2023/08/11 05:19:31;;;;;;;3.90;3.20;;;;;;;-143.84;59.95;45047.16;5090755;28;20432;-53
2023/08/11 05:21:58;;;;;;;3.53;3.23;;;;;;;-143.84;59.51;45026.22;5090601;28;20845;-53
2023/08/11 05:24:25;;;;;;;3.10;2.80;;;;;;;-143.84;58.04;45052.88;5090396;28;20471;-53
2023/08/11 05:26:54;;;;;;;5.50;2.80;;;;;;;-143.84;56.79;45039.53;5090075;28;20806;-52
2023/08/11 05:29:21;;;;;;;10.40;2.70;;;;;;;-143.84;56.99;45022.41;5090331;28;20436;-52
2023/08/11 05:31:48;;;;;;;3.73;2.77;;;;;;;-143.84;56.42;45030.03;5090500;28;20443;-52
2023/08/11 05:34:15;;;;;;;5.70;2.90;;;;;;;-143.84;56.59;45049.06;5090534;28;20448;-52
2023/08/11 05:36:43;;;;;;;3.80;2.83;;;;;;;-143.84;56.44;45045.25;5090337;28;20956;-52
2023/08/11 05:39:10;;;;;;;4.87;2.90;;;;;;;-143.84;55.92;45039.53;5090431;28;21015;-52
2023/08/11 05:41:37;;;;;;;3.13;2.93;;;;;;;-143.84;55.00;45018.59;5090389;28;20436;-53
2023/08/11 05:44:06;;;;;;;3.53;2.97;;;;;;;-143.84;54.73;45056.69;5090336;28;20436;-53
2023/08/11 05:46:34;;;;;;;10.27;2.80;;;;;;;-143.84;53.04;45062.41;5090294;28;20440;-52
2023/08/11 05:49:01;;;;;;;2.70;2.50;;;;;;;-143.84;51.79;45033.84;5090466;28;20933;-53
2023/08/11 05:51:28;;;;;;;5.00;3.13;;;;;;;-143.84;51.36;45030.03;5089918;28;20533;-52
2023/08/11 05:53:55;;;;;;;3.67;2.90;;;;;;;-143.84;50.57;45028.13;5090278;28;20440;-53
2023/08/11 05:56:22;;;;;;;3.57;2.80;;;;;;;-143.84;50.45;45022.41;5090001;28;20949;-53
2023/08/11 05:58:49;;;;;;;10.20;3.03;;;;;;;-143.84;50.10;45012.88;5089403;28;20449;-53
2023/08/11 06:01:18;;;;;;;5.93;2.80;;;;;;;-143.84;49.09;45003.38;5089754;28;20489;-53
2023/08/11 06:03:45;;;;;;;5.80;3.00;;;;;;;-143.84;48.44;45022.41;5090094;28;20548;-53
2023/08/11 06:06:12;;;;;;;7.03;2.63;;;;;;;-143.84;47.71;45001.47;5090278;28;21397;-53
2023/08/11 06:08:39;;;;;;;6.17;2.63;;;;;;;-143.84;47.08;45012.88;5090109;28;20501;-53
2023/08/11 06:11:06;;;;;;;7.93;2.80;;;;;;;-143.84;46.81;44972.91;5090027;28;20954;-53
2023/08/11 06:13:33;;;;;;;6.00;2.60;;;;;;;-143.84;46.26;44991.94;5089868;28;20436;-53
2023/08/11 06:16:00;;;;;;;8.33;2.67;;;;;;;-143.84;45.48;44993.84;5089614;28;20504;-53
2023/08/11 06:18:29;;;;;;;2.80;2.60;;;;;;;-143.84;44.87;44982.41;5089747;28;20440;-53
2023/08/11 06:20:57;;;;;;;3.03;2.60;;;;;;;-143.84;44.81;44997.66;5089786;28;20443;-53
2023/08/11 06:23:24;;;;;;;2.80;2.60;;;;;;;-143.84;44.53;45005.28;5089339;28;20436;-53
2023/08/11 06:25:52;;;;;;;4.70;2.97;;;;;;;-143.84;44.53;44980.53;5089459;28;20439;-53
2023/08/11 06:28:19;;;;;;;7.33;2.77;;;;;;;-143.84;44.45;44986.22;5089607;28;21071;-53
2023/08/11 06:30:46;;;;;;;5.60;3.13;;;;;;;-143.84;44.55;45005.28;5088884;28;20479;-53
2023/08/11 06:33:13;;;;;;;4.53;2.93;;;;;;;-143.84;43.43;44990.03;5089508;28;20450;-53
2023/08/11 06:35:43;;;;;;;5.63;3.03;;;;;;;-143.84;44.01;44984.31;5089309;28;20494;-53
2023/08/11 06:38:10;;;;;;;5.57;3.10;;;;;;;-143.84;43.22;44961.47;5089496;28;20447;-53
2023/08/11 06:40:38;;;;;;;4.17;3.07;;;;;;;-143.84;43.23;44965.28;5089325;28;20435;-53
2023/08/11 06:43:05;;;;;;;5.20;2.53;;;;;;;-143.84;42.22;44986.22;5089165;28;20448;-53
2023/08/11 06:45:32;;;;;;;8.33;2.97;;;;;;;-143.84;42.27;44957.66;5089431;28;20497;-53
2023/08/11 06:48:00;;;;;;;4.93;3.00;;;;;;;-143.84;41.23;44957.66;5089058;28;20470;-53
2023/08/11 06:50:27;;;;;;;3.00;2.80;;;;;;;-143.84;40.67;44972.91;5089141;28;20472;-53
2023/08/11 06:52:55;;;;;;;7.13;2.93;;;;;;;-143.84;41.63;44921.50;5089125;28;20444;-53
2023/08/11 06:55:22;;;;;;;3.20;2.60;;;;;;;-143.84;41.60;44959.56;5089119;28;20580;-53
2023/08/11 06:57:49;;;;;;;2.77;2.57;;;;;;;-143.84;41.33;44972.91;5089120;28;20945;-53
2023/08/11 07:00:17;;;;;;;2.90;2.60;;;;;;;-143.84;40.89;44974.81;5089246;28;20544;-53
2023/08/11 07:02:44;;;;;;;2.77;2.57;;;;;;;-143.84;40.40;44957.66;5088637;28;20536;-53
2023/08/11 07:05:12;;;;;;;14.40;2.97;;;;;;;-143.84;40.34;44927.19;5088992;28;20435;-53
2023/08/11 07:07:39;;;;;;;5.93;2.63;;;;;;;-143.84;40.00;44950.06;5089412;28;20917;-51
2023/08/11 07:10:09;;;;;;;2.87;2.47;;;;;;;-143.84;39.83;44934.81;5090289;28;20486;-51
2023/08/11 07:12:36;;;;;;;5.07;2.97;;;;;;;-143.84;39.47;44934.81;5096539;28;20996;-51
2023/08/11 07:15:03;;;;;;;4.93;2.53;;;;;;;-143.84;37.94;44948.16;5096287;28;20446;-51
2023/08/11 07:17:31;;;;;;;8.57;2.93;;;;;;;-143.84;37.54;44953.88;5096387;28;20519;-51
2023/08/11 07:19:58;;;;;;;11.13;2.90;;;;;;;-143.84;37.21;44919.59;5096291;28;20466;-51
2023/08/11 07:22:25;;;;;;;10.70;3.13;;;;;;;-143.84;36.16;44917.69;5096372;28;20450;-52
2023/08/11 07:24:53;;;;;;;2.97;2.30;;;;;;;-143.84;36.34;44923.41;5096088;28;20483;-52
2023/08/11 07:27:21;;;;;;;4.20;3.60;;;;;;;-143.84;35.50;44948.16;5096047;28;20472;-52
2023/08/11 07:29:48;;;;;;;6.73;2.50;;;;;;;-143.84;35.65;44934.81;5096085;28;20443;-50
2023/08/11 07:32:16;;;;;;;5.27;2.83;;;;;;;-143.84;36.16;44944.34;5096059;28;20479;-50
2023/08/11 07:34:43;;;;;;;11.53;2.57;;;;;;;-143.84;36.42;44946.25;5096160;28;20450;-50
2023/08/11 07:37:10;;;;;;;8.13;3.10;;;;;;;-143.84;36.79;44927.19;5096529;28;20432;-50
2023/08/11 07:39:37;;;;;;;9.50;2.70;;;;;;;-143.84;36.04;44921.50;5096371;28;20937;-51
2023/08/11 07:42:04;;;;;;;6.27;2.90;;;;;;;-143.84;35.67;44951.97;5096009;28;20439;-51
2023/08/11 07:44:34;;;;;;;5.37;2.53;;;;;;;-143.84;35.83;44906.25;5095949;28;20447;-51
2023/08/11 07:47:02;;;;;;;5.37;2.50;;;;;;;-143.84;35.63;44959.56;5095866;28;20956;-52
2023/08/11 07:49:29;;;;;;;7.23;2.87;;;;;;;-143.84;34.76;44951.97;5095440;28;20451;-51
2023/08/11 07:51:58;;;;;;;3.03;2.73;;;;;;;-143.84;35.08;44929.09;5095475;28;20476;-50
2023/08/11 07:54:25;;;;;;;3.40;2.90;;;;;;;-143.84;34.71;44938.63;5095418;28;20446;-51
2023/08/11 07:56:52;;;;;;;3.03;2.57;;;;;;;-143.84;33.64;44931.00;5095293;28;20447;-51
2023/08/11 07:59:19;;;;;;;2.70;2.50;;;;;;;-143.84;33.96;44950.06;5095343;28;20949;-51
2023/08/11 08:01:48;;;;;;;11.13;2.90;;;;;;;-143.84;34.82;44913.88;5095130;28;20440;-51
2023/08/11 08:04:16;;;;;;;8.53;3.50;;;;;;;-143.84;34.82;44932.91;5094661;28;20497;-50
2023/08/11 08:06:45;;;;;;;3.60;2.67;;;;;;;-143.84;35.37;44919.59;5095145;28;20941;-52
2023/08/11 08:09:14;;;;;;;8.97;2.97;;;;;;;-143.84;33.71;44936.72;5094931;28;20444;-51
2023/08/11 08:11:43;;;;;;;3.33;2.07;;;;;;;-143.84;34.29;44923.41;5095038;28;21027;-52
2023/08/11 08:14:11;;;;;;;12.27;2.80;;;;;;;-143.84;34.65;44923.41;5095487;28;20448;-50
2023/08/11 08:16:38;;;;;;;4.60;2.47;;;;;;;-143.84;34.32;44965.28;5095531;28;20478;-51
2023/08/11 08:19:06;;;;;;;4.20;2.90;;;;;;;-143.84;35.34;44908.16;5095083;28;20440;-51
2023/08/11 08:21:34;;;;;;;5.80;2.83;;;;;;;-143.84;36.05;44932.91;5094384;28;20969;-52
2023/08/11 08:24:04;;;;;;;4.13;2.20;;;;;;;-143.84;33.04;44898.66;5091150;28;20483;-50
2023/08/11 08:26:31;;;;;;;10.60;2.27;;;;;;;-143.84;34.11;44913.88;5091322;28;20439;-54
2023/08/11 08:28:59;;;;;;;7.53;2.30;;;;;;;-143.84;33.06;44931.00;5091389;28;20436;-54
2023/08/11 08:31:27;;;;;;;4.77;2.50;;;;;;;-143.84;33.17;44906.25;5091306;28;20588;-54
2023/08/11 08:33:54;;;;;;;5.70;2.50;;;;;;;-143.84;33.26;44902.44;5091799;28;20512;-54
2023/08/11 08:36:23;;;;;;;5.60;2.43;;;;;;;-143.84;33.48;44927.19;5091617;28;20516;-54
2023/08/11 08:38:50;;;;;;;6.70;2.27;;;;;;;-143.84;32.63;44923.41;5091753;28;20452;-54
2023/08/11 08:41:23;;;;;;;3.57;2.90;;;;;;;-143.84;32.46;44938.63;5091493;28;20500;-53
2023/08/11 08:43:51;;;;;;;4.13;2.97;;;;;;;-143.84;33.22;44915.78;5091491;28;20451;-54
2023/08/11 08:46:21;;;;;;;8.37;2.50;;;;;;;-143.84;32.49;44904.34;5091432;28;20442;-54
2023/08/11 08:48:56;;;;;;;2.30;2.10;;;;;;;-143.84;32.67;44911.97;5091545;28;20933;-53
2023/08/11 08:51:25;;;;;;;4.27;2.70;;;;;;;-143.84;32.15;44921.50;5091749;28;20547;-53
2023/08/11 08:53:52;;;;;;;2.53;2.20;;;;;;;-143.84;32.46;44902.44;5091307;28;20440;-54
2023/08/11 08:56:20;;;;;;;3.80;2.40;;;;;;;-143.84;31.95;44915.78;5091651;28;20448;-54
2023/08/11 08:58:47;;;;;;;9.20;2.60;;;;;;;-143.84;31.49;44904.34;5090955;28;20440;-54
2023/08/11 09:01:16;;;;;;;4.80;2.70;;;;;;;-143.84;31.69;44883.41;5091164;28;20440;-54
2023/08/11 09:03:45;;;;;;;9.93;3.00;;;;;;;-143.84;31.26;44910.06;5090784;28;20540;-54
2023/08/11 09:06:13;;;;;;;13.43;3.00;;;;;;;-143.84;31.62;44891.03;5091175;28;20785;-53
2023/08/11 09:08:42;;;;;;;7.50;2.23;;;;;;;-143.84;31.31;44925.31;5090881;28;20440;-54
2023/08/11 09:11:09;;;;;;;6.30;2.50;;;;;;;-143.84;31.12;44911.97;5091027;28;20475;-54
2023/08/11 09:13:38;;;;;;;3.63;2.13;;;;;;;-143.84;31.18;44894.84;5090981;28;20568;-53
2023/08/11 09:16:05;;;;;;;2.20;2.00;;;;;;;-143.84;31.08;44896.75;5090880;28;20447;-54
2023/08/11 09:18:33;;;;;;;6.60;2.50;;;;;;;-143.84;31.75;44908.16;5090757;28;20446;-53
2023/08/11 09:21:02;;;;;;;5.87;2.40;;;;;;;-143.84;31.53;44887.22;5090800;28;20444;-53
2023/08/11 09:23:29;;;;;;;5.07;3.00;;;;;;;-143.84;31.01;44910.06;5091026;28;20436;-54
2023/08/11 09:25:58;;;;;;;7.07;3.07;;;;;;;-143.84;31.69;44911.97;5090774;28;20448;-54
2023/08/11 09:28:26;;;;;;;4.90;1.90;;;;;;;-143.84;30.95;44892.94;5090494;28;20444;-54
2023/08/11 09:30:54;;;;;;;7.80;2.90;;;;;;;-143.84;30.84;44908.16;5090492;28;20564;-53
2023/08/11 09:33:23;;;;;;;2.73;2.20;;;;;;;-143.84;30.64;44906.25;5090343;28;20436;-51
2023/08/11 09:35:51;;;;;;;2.37;2.10;;;;;;;-143.84;30.94;44911.97;5090797;28;20512;-51
2023/08/11 09:38:18;;;;;;;8.30;2.70;;;;;;;-143.84;31.26;44898.66;5091390;28;20444;-50
2023/08/11 09:40:47;;;;;;;5.27;1.97;;;;;;;-143.84;31.26;44908.16;5091201;28;21299;-50
2023/08/11 09:43:15;;;;;;;6.00;3.00;;;;;;;-143.84;31.28;44902.44;5091051;28;21218;-51
2023/08/11 09:45:42;;;;;;;8.60;2.77;;;;;;;-143.84;31.20;44868.19;5090929;28;20443;-50
2023/08/11 09:48:09;;;;;;;3.50;3.17;;;;;;;-143.84;31.19;44877.69;5091027;28;20440;-50
2023/08/11 09:50:39;;;;;;;3.73;2.40;;;;;;;-143.84;30.54;44885.31;5090951;28;20444;-50
2023/08/11 09:53:08;;;;;;;4.60;3.40;;;;;;;-143.84;30.77;44894.84;5091145;28;20428;-50
2023/08/11 09:55:36;;;;;;;5.50;3.20;;;;;;;-143.84;31.55;44879.59;5090890;28;20497;-52
2023/08/11 09:58:06;;;;;;;3.87;3.57;;;;;;;-143.84;30.49;44923.41;5090977;28;20475;-50
2023/08/11 10:00:35;;;;;;;8.13;2.80;;;;;;;-143.84;30.25;44887.22;5090921;28;20474;-51
2023/08/11 10:03:06;;;;;;;5.67;2.50;;;;;;;-143.84;31.01;44931.00;5090358;28;20488;-51
2023/08/11 10:05:38;;;;;;;6.00;3.43;;;;;;;-143.84;29.74;44915.78;5090732;28;20910;-51
2023/08/11 10:08:07;;;;;;;2.50;2.30;;;;;;;-143.84;30.29;44902.44;5090923;28;21119;-51
2023/08/11 10:10:37;;;;;;;4.57;2.60;;;;;;;-143.84;29.87;44927.19;5090671;28;20431;-50
2023/08/11 10:13:08;;;;;;;9.00;2.80;;;;;;;-143.84;30.89;44885.31;5090179;28;20479;-51
2023/08/11 10:15:39;;;;;;;3.30;2.77;;;;;;;-143.84;30.87;44904.34;5090185;28;20434;-50
2023/08/11 10:18:08;;;;;;;7.97;2.80;;;;;;;-143.84;30.81;44891.03;5089676;28;20432;-51
2023/08/11 10:20:35;;;;;;;4.10;2.73;;;;;;;-143.84;31.01;44902.44;5089136;28;20440;-54
2023/08/11 10:23:03;;;;;;;7.17;3.23;;;;;;;-143.84;30.87;44902.44;5089427;28;20851;-54
2023/08/11 10:25:31;;;;;;;5.60;3.37;;;;;;;-143.84;30.24;44896.75;5089365;28;20436;-54
2023/08/11 10:28:00;;;;;;;3.77;3.47;;;;;;;-143.84;29.73;44902.44;5090108;28;20505;-54
2023/08/11 10:30:28;;;;;;;5.07;3.00;;;;;;;-143.84;30.89;44898.66;5089961;28;20527;-54
2023/08/11 10:33:03;;;;;;;5.80;3.30;;;;;;;-143.84;30.57;44885.31;5089609;28;21058;-54
2023/08/11 10:35:36;;;;;;;9.70;2.60;;;;;;;-143.84;29.96;44927.19;5089551;28;20497;-54
2023/08/11 10:38:05;;;;;;;5.20;3.03;;;;;;;-143.84;30.41;44917.69;5089379;28;20444;-54
2023/08/11 10:40:35;;;;;;;5.30;2.97;;;;;;;-143.84;30.41;44881.50;5089353;28;20976;-54
2023/08/11 10:43:04;;;;;;;6.07;2.93;;;;;;;-143.84;30.04;44885.31;5089485;28;20559;-54
2023/08/11 10:45:33;;;;;;;3.10;2.87;;;;;;;-143.84;30.25;44908.16;5088875;28;20444;-54
2023/08/11 10:48:08;;;;;;;4.40;3.00;;;;;;;-143.84;30.70;44915.78;5089442;28;20515;-53
2023/08/11 10:50:37;;;;;;;3.40;2.90;;;;;;;-143.84;29.70;44900.53;5088446;28;20836;-54
2023/08/11 10:53:08;;;;;;;2.53;2.33;;;;;;;-143.84;30.26;44902.44;5088549;28;20472;-53
2023/08/11 10:55:36;;;;;;;5.23;2.70;;;;;;;-143.84;31.20;44871.97;5088321;28;20435;-53
2023/08/11 10:58:14;;;;;;;4.97;2.53;;;;;;;-143.84;31.55;44940.53;5088395;28;20444;-54
2023/08/11 11:00:42;;;;;;;9.53;3.27;;;;;;;-143.84;30.21;44917.69;5088395;28;20431;-54
2023/08/11 11:03:11;;;;;;;5.30;2.60;;;;;;;-143.84;30.89;44917.69;5088434;28;20925;-53
2023/08/11 11:05:41;;;;;;;3.93;2.50;;;;;;;-143.84;30.22;44881.50;5089157;28;20444;-53
2023/08/11 11:08:09;;;;;;;4.67;2.03;;;;;;;-143.84;30.33;44881.50;5088792;28;20440;-53
2023/08/11 11:10:36;;;;;;;10.23;2.90;;;;;;;-143.84;30.83;44915.78;5088950;28;20440;-53
2023/08/11 11:13:03;;;;;;;7.70;2.30;;;;;;;-143.84;31.18;44906.25;5088858;28;20475;-54
2023/08/11 11:15:32;;;;;;;2.50;2.30;;;;;;;-143.84;29.81;44904.34;5088953;28;20440;-54
2023/08/11 11:18:00;;;;;;;9.30;2.73;;;;;;;-143.84;29.74;44866.28;5089093;28;20436;-53
2023/08/11 11:20:29;;;;;;;5.47;2.27;;;;;;;-143.84;30.15;44898.66;5089146;28;20497;-53